< < Back
Terminal Aerodrome Forecast


Current Version              Previous Versions:   1  2  3  4  5  6  7  8  9  

Terminal Aerodrome Forecast

156
FTUS42 KCHS 262320
TAFCHS
TAF
KCHS 262320Z 2700/2724 11008KT P6SM SKC
     FM270200 VRB03KT P6SM FEW025
     FM271600 11010G16KT P6SM SCT050=

Latest METAR

492
SAUS80 KWBC 271500 CCA
MTRCHS
METAR KCHS 271456Z 08011KT 10SM FEW027 FEW035 31/21 A3009 RMK AO2 SLP190
T03060211 51007


USA.gov is the U.S. government's official web portal to all federal, state and local government web resources and services.